Time;durP1;ratioP1;P1;durP2;ratioP2;P2;SDS_P1;SDS_P2;PMS_P1;PMS_P2;Temp;Humidity;BMP_temperature;BMP_pressure;BME280_temperature;BME280_humidity;BME280_pressure;Samples;Min_cycle;Max_cycle;Signal;HPM_P1;HPM_P2
2022/08/15 00:00:34;;;;;;;7.40;6.13;;;;;;;;;;6212726;28;20049;-87
2022/08/15 00:03:48;;;;;;;7.30;6.50;;;;;;;;;;6230231;28;20535;-84
2022/08/15 00:07:04;;;;;;;7.25;6.55;;;;;;;;;;6216102;28;20049;-86
2022/08/15 00:10:09;;;;;;;6.72;6.03;;;;;;;;;;6214679;28;20304;-84
2022/08/15 00:13:31;;;;;;;7.10;6.38;;;;;;;;;;6217671;28;20046;-82
2022/08/15 00:16:47;;;;;;;6.85;6.07;;;;;;;;;;6226527;28;20042;-86
2022/08/15 00:19:49;;;;;;;7.63;6.65;;;;;;;;;;6237101;28;20042;-85
2022/08/15 00:22:51;;;;;;;7.22;6.53;;;;;;;;;;6236726;28;20081;-86
2022/08/15 00:25:58;;;;;;;9.88;6.78;;;;;;;;;;6218907;28;20566;-84
2022/08/15 00:29:22;;;;;;;10.77;6.43;;;;;;;;;;6235942;28;20133;-85
2022/08/15 00:32:39;;;;;;;7.70;6.80;;;;;;;;;;6228697;28;20663;-86
2022/08/15 00:36:01;;;;;;;7.00;6.30;;;;;;;;;;6221866;28;20062;-84
2022/08/15 00:39:25;;;;;;;7.10;6.40;;;;;;;;;;6218229;28;20046;-83
2022/08/15 00:42:34;;;;;;;7.20;6.50;;;;;;;;;;6224718;28;20390;-85
2022/08/15 00:45:35;;;;;;;7.35;6.55;;;;;;;;;;6228069;28;20446;-82
2022/08/15 00:48:43;;;;;;;7.75;6.32;;;;;;;;;;6204074;28;20046;-82
2022/08/15 00:51:50;;;;;;;8.13;7.03;;;;;;;;;;6212750;28;20042;-82
2022/08/15 00:54:59;;;;;;;7.05;6.35;;;;;;;;;;6224253;28;20524;-81
2022/08/15 00:58:02;;;;;;;8.00;6.45;;;;;;;;;;6230595;28;20133;-81
2022/08/15 01:01:06;;;;;;;7.80;6.38;;;;;;;;;;6226937;28;20049;-81
2022/08/15 01:04:12;;;;;;;6.97;6.28;;;;;;;;;;6215167;28;20687;-81
2022/08/15 01:07:20;;;;;;;8.82;6.32;;;;;;;;;;6226011;28;20120;-81
2022/08/15 01:10:24;;;;;;;8.40;6.30;;;;;;;;;;6213521;28;20129;-83
2022/08/15 01:13:33;;;;;;;8.95;6.90;;;;;;;;;;6197869;28;20072;-79
2022/08/15 01:16:55;;;;;;;8.38;6.55;;;;;;;;;;6208819;28;20065;-81
2022/08/15 01:20:03;;;;;;;7.35;6.50;;;;;;;;;;6227756;28;20053;-80
2022/08/15 01:23:13;;;;;;;7.15;6.00;;;;;;;;;;6213610;28;20085;-82
2022/08/15 01:26:21;;;;;;;7.00;6.30;;;;;;;;;;6209584;28;20778;-81
2022/08/15 01:29:43;;;;;;;7.38;6.50;;;;;;;;;;6212636;28;20050;-81
2022/08/15 01:32:46;;;;;;;7.70;6.68;;;;;;;;;;6230724;28;20046;-79
2022/08/15 01:35:51;;;;;;;7.75;6.38;;;;;;;;;;6229227;28;20707;-82
2022/08/15 01:39:12;;;;;;;9.18;7.03;;;;;;;;;;6213308;28;20156;-82
2022/08/15 01:42:22;;;;;;;7.57;6.45;;;;;;;;;;6212850;28;20042;-81
2022/08/15 01:45:32;;;;;;;7.50;6.70;;;;;;;;;;6191530;28;20056;-81
2022/08/15 01:48:44;;;;;;;9.60;7.13;;;;;;;;;;6224799;28;20288;-81
2022/08/15 01:51:48;;;;;;;7.90;7.07;;;;;;;;;;6226230;28;20038;-81
2022/08/15 01:54:55;;;;;;;8.32;7.18;;;;;;;;;;6208491;28;20460;-81
2022/08/15 01:58:06;;;;;;;7.18;6.30;;;;;;;;;;6222047;28;20077;-82
2022/08/15 02:01:19;;;;;;;8.05;7.05;;;;;;;;;;6226330;28;20065;-79
2022/08/15 02:04:39;;;;;;;7.15;6.45;;;;;;;;;;6215988;28;20038;-81
2022/08/15 02:07:42;;;;;;;8.43;6.97;;;;;;;;;;6212404;28;20053;-81
2022/08/15 02:10:50;;;;;;;8.13;7.30;;;;;;;;;;6229196;28;20092;-81
2022/08/15 02:13:54;;;;;;;7.80;7.00;;;;;;;;;;6229223;28;20041;-82
2022/08/15 02:16:56;;;;;;;7.97;7.15;;;;;;;;;;6228724;28;20045;-82
2022/08/15 02:20:01;;;;;;;7.70;6.82;;;;;;;;;;6228536;28;20041;-80
2022/08/15 02:23:23;;;;;;;7.82;7.03;;;;;;;;;;6209462;28;20456;-82
2022/08/15 02:26:31;;;;;;;8.10;7.20;;;;;;;;;;6230328;28;20057;-81
2022/08/15 02:29:35;;;;;;;9.85;7.18;;;;;;;;;;6230237;28;20050;-82
2022/08/15 02:32:56;;;;;;;9.98;7.85;;;;;;;;;;6226677;28;20046;-80
2022/08/15 02:36:00;;;;;;;9.30;7.22;;;;;;;;;;6216277;28;20039;-83
2022/08/15 02:39:07;;;;;;;7.68;6.65;;;;;;;;;;6228190;28;20034;-81
2022/08/15 02:42:11;;;;;;;7.40;6.43;;;;;;;;;;6202005;28;20052;-82
2022/08/15 02:45:15;;;;;;;9.00;7.25;;;;;;;;;;6212195;28;20501;-82
2022/08/15 02:48:18;;;;;;;8.70;6.43;;;;;;;;;;6230596;28;20042;-81
2022/08/15 02:51:33;;;;;;;7.55;6.72;;;;;;;;;;6230866;28;20045;-82
2022/08/15 02:54:57;;;;;;;9.05;7.35;;;;;;;;;;6231029;28;20116;-81
2022/08/15 02:58:09;;;;;;;9.15;6.90;;;;;;;;;;6230240;28;20444;-80
2022/08/15 03:01:32;;;;;;;8.80;7.15;;;;;;;;;;6213504;28;20111;-81
2022/08/15 03:04:46;;;;;;;8.35;7.50;;;;;;;;;;6224963;28;20085;-83
2022/08/15 03:07:48;;;;;;;;;;;;;;;;;;6226031;28;20569;-79
2022/08/15 03:10:51;;;;;;;7.90;7.00;;;;;;;;;;6229211;28;19922;-82
2022/08/15 03:13:59;;;;;;;8.43;7.38;;;;;;;;;;6229384;28;20046;-79
2022/08/15 03:17:04;;;;;;;7.55;6.53;;;;;;;;;;6227927;28;20594;-79
2022/08/15 03:20:12;;;;;;;8.20;7.30;;;;;;;;;;6213469;28;20045;-82
2022/08/15 03:23:16;;;;;;;8.60;6.93;;;;;;;;;;6229610;28;20064;-80
2022/08/15 03:26:25;;;;;;;8.05;7.25;;;;;;;;;;6213270;28;20065;-82
2022/08/15 03:29:47;;;;;;;7.63;6.82;;;;;;;;;;6216452;28;20046;-80
2022/08/15 03:32:57;;;;;;;9.35;7.35;;;;;;;;;;6224798;28;20046;-83
2022/08/15 03:36:06;;;;;;;8.13;7.30;;;;;;;;;;6227624;28;20045;-80
2022/08/15 03:39:13;;;;;;;8.02;7.22;;;;;;;;;;6225251;28;20053;-78
2022/08/15 03:42:17;;;;;;;8.80;7.60;;;;;;;;;;6209474;28;20046;-78
2022/08/15 03:45:24;;;;;;;8.73;7.53;;;;;;;;;;6225173;28;20127;-78
2022/08/15 03:48:44;;;;;;;9.73;7.65;;;;;;;;;;6233723;28;20068;-76
2022/08/15 03:52:04;;;;;;;;;;;;;;;;;;6234278;28;20501;-79
2022/08/15 03:55:07;;;;;;;8.27;6.80;;;;;;;;;;6214479;28;19932;-79
2022/08/15 03:58:18;;;;;;;10.03;7.30;;;;;;;;;;6215282;28;20111;-78
2022/08/15 04:01:38;;;;;;;9.80;7.00;;;;;;;;;;6229717;28;20057;-79
2022/08/15 04:04:44;;;;;;;8.02;7.18;;;;;;;;;;6202479;28;20504;-79
2022/08/15 04:07:46;;;;;;;8.95;7.10;;;;;;;;;;6200442;28;21787;-77
2022/08/15 04:11:01;;;;;;;8.95;8.00;;;;;;;;;;6229835;28;20044;-80
2022/08/15 04:14:08;;;;;;;8.30;7.43;;;;;;;;;;6232362;28;20049;-78
2022/08/15 04:17:31;;;;;;;8.52;7.38;;;;;;;;;;6230566;28;20532;-78
2022/08/15 04:20:55;;;;;;;12.43;8.15;;;;;;;;;;6216364;28;20042;-77
2022/08/15 04:23:57;;;;;;;9.73;7.78;;;;;;;;;;6231247;28;20408;-77
2022/08/15 04:27:00;;;;;;;9.73;8.25;;;;;;;;;;6231981;28;20452;-77
2022/08/15 04:30:04;;;;;;;9.60;7.67;;;;;;;;;;6230696;28;20050;-78
2022/08/15 04:33:29;;;;;;;11.10;8.20;;;;;;;;;;6220441;28;20464;-76
2022/08/15 04:36:52;;;;;;;11.32;8.70;;;;;;;;;;6226396;28;20096;-78
2022/08/15 04:39:58;;;;;;;11.90;8.57;;;;;;;;;;6204941;28;20046;-78
2022/08/15 04:43:01;;;;;;;11.90;8.60;;;;;;;;;;6236743;28;20549;-77
2022/08/15 04:46:05;;;;;;;10.52;8.15;;;;;;;;;;6214560;28;20532;-78
2022/08/15 04:49:15;;;;;;;8.88;7.70;;;;;;;;;;6230840;28;20049;-78
2022/08/15 04:52:21;;;;;;;9.32;7.88;;;;;;;;;;6232048;28;20449;-78
2022/08/15 04:55:28;;;;;;;10.48;8.15;;;;;;;;;;6216331;28;20092;-77
2022/08/15 04:58:47;;;;;;;9.18;7.72;;;;;;;;;;6213216;28;20046;-78
2022/08/15 05:02:11;;;;;;;9.93;7.50;;;;;;;;;;6230936;28;20513;-76
2022/08/15 05:05:40;;;;;;;9.20;7.38;;;;;;;;;;6218306;28;20185;-78
2022/08/15 05:08:43;;;;;;;9.88;7.28;;;;;;;;;;6233684;28;20042;-77
2022/08/15 05:11:53;;;;;;;8.48;7.40;;;;;;;;;;6215659;28;20084;-79
2022/08/15 05:15:15;;;;;;;10.10;7.00;;;;;;;;;;6230560;28;20397;-78
2022/08/15 05:18:24;;;;;;;7.50;6.70;;;;;;;;;;6221685;28;20108;-77
2022/08/15 05:21:28;;;;;;;14.82;7.47;;;;;;;;;;6232398;28;20134;-75
2022/08/15 05:24:45;;;;;;;8.90;6.88;;;;;;;;;;6226726;28;20065;-77
2022/08/15 05:27:47;;;;;;;7.95;7.15;;;;;;;;;;6232685;28;20574;-76
2022/08/15 05:30:50;;;;;;;;;;;;;;;;;;6216937;28;20184;-78
2022/08/15 05:34:00;;;;;;;9.50;7.88;;;;;;;;;;6214348;28;19945;-77
2022/08/15 05:37:11;;;;;;;9.20;7.30;;;;;;;;;;6229709;28;20041;-75
2022/08/15 05:40:16;;;;;;;10.43;7.13;;;;;;;;;;6229335;28;20045;-77
2022/08/15 05:44:02;;;;;;;9.73;7.18;;;;;;;;;;6226264;28;20057;-79
2022/08/15 05:47:43;;;;;;;9.73;7.88;;;;;;;;;;6211252;28;20038;-78
2022/08/15 05:51:01;;;;;;;8.98;7.07;;;;;;;;;;6226684;28;20717;-77
2022/08/15 05:54:36;;;;;;;7.82;7.03;;;;;;;;;;6208462;28;20068;-78
2022/08/15 05:57:56;;;;;;;8.32;7.05;;;;;;;;;;6191391;28;20098;-80
2022/08/15 06:01:15;;;;;;;10.50;7.38;;;;;;;;;;6227241;28;20046;-78
2022/08/15 06:04:22;;;;;;;8.30;7.22;;;;;;;;;;6227443;28;20046;-79
2022/08/15 06:07:36;;;;;;;11.85;7.13;;;;;;;;;;6209994;28;20066;-80
2022/08/15 06:11:10;;;;;;;10.90;7.13;;;;;;;;;;6196738;28;20045;-77
2022/08/15 06:14:38;;;;;;;10.60;7.30;;;;;;;;;;6224329;28;20046;-82
2022/08/15 06:18:00;;;;;;;11.65;7.18;;;;;;;;;;6214182;28;20121;-80
2022/08/15 06:21:15;;;;;;;8.38;6.35;;;;;;;;;;6229070;28;20049;-83
2022/08/15 06:24:46;;;;;;;7.88;6.47;;;;;;;;;;6224676;28;20433;-83
2022/08/15 06:27:53;;;;;;;8.68;6.38;;;;;;;;;;6226567;28;20038;-79
2022/08/15 06:31:35;;;;;;;6.55;5.72;;;;;;;;;;6227687;28;20038;-81
2022/08/15 06:35:13;;;;;;;8.55;5.30;;;;;;;;;;6225660;28;20042;-81
2022/08/15 06:38:34;;;;;;;6.95;5.32;;;;;;;;;;6212590;28;20046;-82
2022/08/15 06:42:04;;;;;;;7.60;4.90;;;;;;;;;;6224719;28;20077;-80
2022/08/15 06:45:42;;;;;;;6.10;5.50;;;;;;;;;;6212886;28;20133;-81
2022/08/15 06:48:51;;;;;;;6.32;4.85;;;;;;;;;;6228861;28;20050;-78
2022/08/15 06:52:11;;;;;;;13.95;6.05;;;;;;;;;;6229370;28;20456;-79
2022/08/15 06:55:22;;;;;;;9.77;5.57;;;;;;;;;;6213192;28;20168;-78
2022/08/15 06:58:46;;;;;;;8.80;5.47;;;;;;;;;;6226455;28;20038;-79
2022/08/15 07:02:19;;;;;;;7.32;5.28;;;;;;;;;;6209975;28;20042;-78
2022/08/15 07:05:28;;;;;;;;;;;;;;;;;;6208942;28;20056;-77
2022/08/15 07:08:42;;;;;;;6.57;4.30;;;;;;;;;;6224445;28;21585;-77
2022/08/15 07:11:52;;;;;;;6.93;4.60;;;;;;;;;;6207513;28;20049;-78
2022/08/15 07:15:02;;;;;;;;;;;;;;;;;;6208465;28;20042;-77
2022/08/15 07:18:14;;;;;;;8.52;5.00;;;;;;;;;;6224770;28;19925;-77
2022/08/15 07:21:22;;;;;;;13.27;5.40;;;;;;;;;;6210630;28;20053;-77
2022/08/15 07:24:31;;;;;;;13.15;4.80;;;;;;;;;;6225360;28;20410;-75
2022/08/15 07:27:37;;;;;;;8.27;4.72;;;;;;;;;;6225659;28;20042;-76
2022/08/15 07:30:51;;;;;;;11.98;4.90;;;;;;;;;;6224902;28;20381;-79
2022/08/15 07:34:04;;;;;;;9.43;4.85;;;;;;;;;;6220469;28;20529;-76
2022/08/15 07:37:23;;;;;;;11.65;4.65;;;;;;;;;;6226630;28;20041;-77
2022/08/15 07:40:30;;;;;;;6.50;4.30;;;;;;;;;;6225367;28;20126;-76
2022/08/15 07:43:38;;;;;;;7.85;4.40;;;;;;;;;;6224580;28;20129;-78
2022/08/15 07:46:59;;;;;;;7.60;4.30;;;;;;;;;;6213178;28;20045;-77
2022/08/15 07:50:27;;;;;;;12.98;4.68;;;;;;;;;;6227684;28;20134;-78
2022/08/15 07:53:33;;;;;;;8.35;4.50;;;;;;;;;;6226389;28;20046;-76
2022/08/15 07:56:52;;;;;;;9.07;4.20;;;;;;;;;;6226385;28;20042;-77
2022/08/15 08:00:08;;;;;;;7.15;4.30;;;;;;;;;;6224312;28;20148;-76
2022/08/15 08:03:35;;;;;;;10.85;4.10;;;;;;;;;;6224966;28;20048;-76
2022/08/15 08:06:55;;;;;;;7.15;4.00;;;;;;;;;;6226764;28;20168;-77
2022/08/15 08:10:14;;;;;;;7.55;3.40;;;;;;;;;;6221586;28;20038;-78
2022/08/15 08:13:40;;;;;;;6.70;4.05;;;;;;;;;;6223522;28;20120;-78
2022/08/15 08:16:55;;;;;;;3.53;3.20;;;;;;;;;;6225413;28;20356;-77
2022/08/15 08:20:22;;;;;;;7.10;3.40;;;;;;;;;;6227514;28;20052;-77
2022/08/15 08:23:49;;;;;;;4.45;3.40;;;;;;;;;;6206610;28;20458;-79
2022/08/15 08:27:05;;;;;;;3.75;3.00;;;;;;;;;;6224398;28;20042;-78
2022/08/15 08:30:33;;;;;;;4.70;3.38;;;;;;;;;;6207281;28;20650;-79
2022/08/15 08:34:06;;;;;;;7.70;3.22;;;;;;;;;;6228518;28;20056;-78
2022/08/15 08:37:45;;;;;;;5.65;3.47;;;;;;;;;;6215029;28;20053;-78
2022/08/15 08:41:33;;;;;;;4.43;3.20;;;;;;;;;;6213048;28;20049;-78
2022/08/15 08:44:59;;;;;;;5.65;3.40;;;;;;;;;;6227119;28;20046;-78
2022/08/15 08:48:18;;;;;;;7.72;3.08;;;;;;;;;;6216632;28;20042;-78
2022/08/15 08:51:45;;;;;;;5.60;3.00;;;;;;;;;;6230164;28;20046;-76
2022/08/15 08:55:00;;;;;;;4.25;3.15;;;;;;;;;;6227417;28;20134;-77
2022/08/15 08:58:10;;;;;;;3.83;3.05;;;;;;;;;;6200036;28;20121;-79
2022/08/15 09:01:15;;;;;;;4.30;3.20;;;;;;;;;;6215974;28;20120;-78
2022/08/15 09:04:23;;;;;;;5.53;3.10;;;;;;;;;;6214323;28;20413;-75
2022/08/15 09:07:30;;;;;;;5.78;3.42;;;;;;;;;;6214457;28;20045;-78
2022/08/15 09:10:36;;;;;;;4.70;3.38;;;;;;;;;;6213909;28;20140;-77
2022/08/15 09:13:43;;;;;;;5.20;3.40;;;;;;;;;;6215035;28;20049;-78
2022/08/15 09:16:46;;;;;;;6.97;3.53;;;;;;;;;;6227967;28;20125;-77
2022/08/15 09:20:29;;;;;;;5.15;3.20;;;;;;;;;;6210845;28;20436;-77
2022/08/15 09:23:38;;;;;;;4.10;2.90;;;;;;;;;;6208534;28;20520;-78
2022/08/15 09:26:42;;;;;;;5.35;3.22;;;;;;;;;;6201087;28;20038;-76
2022/08/15 09:29:57;;;;;;;6.00;3.25;;;;;;;;;;6224319;28;20394;-77
2022/08/15 09:33:18;;;;;;;4.40;3.72;;;;;;;;;;6212143;28;20145;-76
2022/08/15 09:36:41;;;;;;;6.63;3.97;;;;;;;;;;6209679;28;20141;-75
2022/08/15 09:40:06;;;;;;;5.63;3.92;;;;;;;;;;6210337;28;20129;-76
2022/08/15 09:43:40;;;;;;;8.40;4.85;;;;;;;;;;6210984;28;20042;-77
2022/08/15 09:47:17;;;;;;;7.20;4.90;;;;;;;;;;6211345;28;20046;-77
2022/08/15 09:50:27;;;;;;;7.35;5.00;;;;;;;;;;6212016;28;20551;-78
2022/08/15 09:54:13;;;;;;;9.93;4.97;;;;;;;;;;6211588;28;20057;-75
2022/08/15 09:57:45;;;;;;;10.38;5.82;;;;;;;;;;6168697;28;20058;-76
2022/08/15 10:00:58;;;;;;;7.60;5.07;;;;;;;;;;6215529;28;20042;-77
2022/08/15 10:04:07;;;;;;;9.30;5.40;;;;;;;;;;6214366;28;20089;-77
2022/08/15 10:07:40;;;;;;;12.23;5.32;;;;;;;;;;6218429;28;20050;-79
2022/08/15 10:10:52;;;;;;;7.95;5.20;;;;;;;;;;6211953;28;20843;-78
2022/08/15 10:14:06;;;;;;;6.25;5.10;;;;;;;;;;6215334;28;20061;-77
2022/08/15 10:17:34;;;;;;;8.77;4.97;;;;;;;;;;6216444;28;20045;-78
2022/08/15 10:20:40;;;;;;;5.28;4.20;;;;;;;;;;6215276;28;20052;-77
2022/08/15 10:23:49;;;;;;;7.75;3.95;;;;;;;;;;6215073;28;20121;-79
2022/08/15 10:27:07;;;;;;;5.15;4.43;;;;;;;;;;6230610;28;20080;-78
2022/08/15 10:30:17;;;;;;;5.45;4.72;;;;;;;;;;6215172;28;20639;-77
2022/08/15 10:33:52;;;;;;;5.90;4.15;;;;;;;;;;6214807;28;20053;-79
2022/08/15 10:37:09;;;;;;;6.60;4.32;;;;;;;;;;6215544;28;20053;-77
2022/08/15 10:40:34;;;;;;;7.00;4.20;;;;;;;;;;6215486;28;20076;-80
2022/08/15 10:43:57;;;;;;;5.68;4.22;;;;;;;;;;6217862;28;20060;-78
2022/08/15 10:47:27;;;;;;;5.55;4.18;;;;;;;;;;6213897;28;20147;-77
2022/08/15 10:50:57;;;;;;;5.30;4.20;;;;;;;;;;6192338;28;20080;-79
2022/08/15 10:54:13;;;;;;;5.75;4.40;;;;;;;;;;6225331;28;20123;-79
2022/08/15 10:57:22;;;;;;;5.55;4.13;;;;;;;;;;6224804;28;20042;-79
2022/08/15 11:00:39;;;;;;;7.32;4.63;;;;;;;;;;6214112;28;20034;-80
2022/08/15 11:04:09;;;;;;;7.32;4.53;;;;;;;;;;6213019;28;20068;-78
2022/08/15 11:07:34;;;;;;;5.93;4.38;;;;;;;;;;6220330;28;20046;-81
2022/08/15 11:10:37;;;;;;;9.20;4.90;;;;;;;;;;6217676;28;20125;-82
2022/08/15 11:13:43;;;;;;;5.95;4.15;;;;;;;;;;6232248;28;20046;-80
2022/08/15 11:16:51;;;;;;;9.20;4.63;;;;;;;;;;6224536;28;20129;-80
2022/08/15 11:20:12;;;;;;;4.65;4.18;;;;;;;;;;6218646;28;20128;-80
2022/08/15 11:23:39;;;;;;;6.43;4.90;;;;;;;;;;6229127;28;20072;-79
2022/08/15 11:26:45;;;;;;;6.05;4.38;;;;;;;;;;6214603;28;20067;-79
2022/08/15 11:29:57;;;;;;;7.40;4.18;;;;;;;;;;6223503;28;20066;-85
2022/08/15 11:33:21;;;;;;;5.40;4.20;;;;;;;;;;6220212;28;20057;-82
2022/08/15 11:36:27;;;;;;;5.57;4.30;;;;;;;;;;6204642;28;20049;-85
2022/08/15 11:39:31;;;;;;;6.38;4.45;;;;;;;;;;6219889;28;20050;-85
2022/08/15 11:42:37;;;;;;;10.07;3.83;;;;;;;;;;6216554;28;20105;-84
2022/08/15 11:46:00;;;;;;;6.88;4.30;;;;;;;;;;6236417;28;20525;-85
2022/08/15 11:49:30;;;;;;;8.05;4.65;;;;;;;;;;6221979;28;20046;-82
2022/08/15 11:52:36;;;;;;;7.10;4.10;;;;;;;;;;6219111;28;20038;-81
2022/08/15 11:55:46;;;;;;;5.35;4.13;;;;;;;;;;6222965;28;20057;-81
2022/08/15 11:58:48;;;;;;;;;;;;;;;;;;6238783;28;20116;-80
2022/08/15 12:02:10;;;;;;;6.22;4.07;;;;;;;;;;6234933;28;19929;-80
2022/08/15 12:05:34;;;;;;;4.72;4.28;;;;;;;;;;6223815;28;20060;-81
2022/08/15 12:08:47;;;;;;;7.53;4.50;;;;;;;;;;6242017;28;20118;-80
2022/08/15 12:11:52;;;;;;;4.38;3.97;;;;;;;;;;6243243;28;20049;-82
2022/08/15 12:15:13;;;;;;;;;;;;;;;;;;6226904;28;20052;-81
2022/08/15 12:18:22;;;;;;;5.03;4.10;;;;;;;;;;6223654;28;20008;-82
2022/08/15 12:21:47;;;;;;;6.45;3.88;;;;;;;;;;6222517;28;20121;-81
2022/08/15 12:25:10;;;;;;;6.28;4.38;;;;;;;;;;6228359;28;20045;-80
2022/08/15 12:28:13;;;;;;;7.80;4.18;;;;;;;;;;6216674;28;20060;-81
2022/08/15 12:31:38;;;;;;;5.88;4.70;;;;;;;;;;6226332;28;20057;-80
2022/08/15 12:34:48;;;;;;;5.15;4.32;;;;;;;;;;6220599;28;20049;-81
2022/08/15 12:37:51;;;;;;;4.80;4.30;;;;;;;;;;6211452;28;20054;-82
2022/08/15 12:40:54;;;;;;;5.68;4.20;;;;;;;;;;6233980;28;20054;-82
2022/08/15 12:44:21;;;;;;;5.78;3.92;;;;;;;;;;6221935;28;20050;-82
2022/08/15 12:47:31;;;;;;;6.68;4.32;;;;;;;;;;6212569;28;20125;-81
2022/08/15 12:50:34;;;;;;;6.32;4.57;;;;;;;;;;6213919;28;20137;-81
2022/08/15 12:53:38;;;;;;;6.82;4.45;;;;;;;;;;6214817;28;20497;-81
2022/08/15 12:56:41;;;;;;;7.93;4.63;;;;;;;;;;6214076;28;20563;-81
2022/08/15 12:59:49;;;;;;;6.45;4.35;;;;;;;;;;6225463;28;20038;-81
2022/08/15 13:02:51;;;;;;;4.80;4.20;;;;;;;;;;6214105;28;20510;-82
2022/08/15 13:06:04;;;;;;;6.60;4.50;;;;;;;;;;6211706;28;20054;-80
2022/08/15 13:09:29;;;;;;;6.15;4.45;;;;;;;;;;6223916;28;20045;-80
2022/08/15 13:12:31;;;;;;;4.47;4.07;;;;;;;;;;6211954;28;20106;-81
2022/08/15 13:15:35;;;;;;;5.32;3.90;;;;;;;;;;6213917;28;20049;-81
2022/08/15 13:18:38;;;;;;;5.20;4.70;;;;;;;;;;6211210;28;20061;-81
2022/08/15 13:25:01;;;;;;;4.65;3.97;;;;;;;;;;6239723;28;20049;-82
2022/08/15 13:28:03;;;;;;;6.10;4.43;;;;;;;;;;6233528;28;20048;-82
2022/08/15 13:31:08;;;;;;;6.93;4.20;;;;;;;;;;6212639;28;20049;-82
2022/08/15 13:34:10;;;;;;;6.10;4.57;;;;;;;;;;6212601;28;20045;-82
2022/08/15 13:37:12;;;;;;;5.93;4.53;;;;;;;;;;6216191;28;20045;-87
2022/08/15 13:40:19;;;;;;;4.63;4.25;;;;;;;;;;6219041;28;20046;-86
2022/08/15 13:43:30;;;;;;;5.95;4.40;;;;;;;;;;6218676;28;20057;-85
2022/08/15 13:46:53;;;;;;;5.47;4.20;;;;;;;;;;6232670;28;20053;-85
2022/08/15 13:49:58;;;;;;;4.75;4.00;;;;;;;;;;6237072;28;20524;-85
2022/08/15 13:53:01;;;;;;;5.95;4.07;;;;;;;;;;6221306;28;20046;-85
2022/08/15 13:56:03;;;;;;;7.90;4.63;;;;;;;;;;6236543;28;20125;-83
2022/08/15 13:59:26;;;;;;;5.60;4.60;;;;;;;;;;6218327;28;20060;-83
2022/08/15 14:02:33;;;;;;;5.50;4.40;;;;;;;;;;6213982;28;20065;-81
2022/08/15 14:05:38;;;;;;;7.20;4.15;;;;;;;;;;6215145;28;20045;-82
2022/08/15 14:08:45;;;;;;;4.75;4.15;;;;;;;;;;6227387;28;20034;-81
2022/08/15 14:12:08;;;;;;;7.32;4.07;;;;;;;;;;6214170;28;20053;-81
2022/08/15 14:15:11;;;;;;;6.18;4.05;;;;;;;;;;6214290;28;20049;-82
2022/08/15 14:18:24;;;;;;;4.10;3.80;;;;;;;;;;6214277;28;20053;-82
2022/08/15 14:21:46;;;;;;;7.22;4.15;;;;;;;;;;6214767;28;20045;-81
2022/08/15 14:24:50;;;;;;;6.65;4.10;;;;;;;;;;6213186;28;20053;-84
2022/08/15 14:28:10;;;;;;;6.30;4.47;;;;;;;;;;6226278;28;20049;-84
2022/08/15 14:31:20;;;;;;;5.53;4.30;;;;;;;;;;6229261;28;20295;-80
2022/08/15 14:34:23;;;;;;;4.50;4.07;;;;;;;;;;6229762;28;20081;-81
2022/08/15 14:37:48;;;;;;;6.40;4.55;;;;;;;;;;6211543;28;20445;-80
2022/08/15 14:40:54;;;;;;;4.60;4.13;;;;;;;;;;6214140;28;20042;-80
2022/08/15 14:43:58;;;;;;;4.43;4.03;;;;;;;;;;6213011;28;20457;-80
2022/08/15 14:47:00;;;;;;;7.47;4.32;;;;;;;;;;6224961;28;20100;-80
2022/08/15 14:50:05;;;;;;;4.88;4.25;;;;;;;;;;6229398;28;20056;-81
2022/08/15 14:53:30;;;;;;;4.53;4.13;;;;;;;;;;6213725;28;20050;-81
2022/08/15 14:56:35;;;;;;;4.55;3.70;;;;;;;;;;6211472;28;20172;-81
2022/08/15 14:59:36;;;;;;;5.10;3.92;;;;;;;;;;6202523;28;20121;-81
2022/08/15 15:03:00;;;;;;;4.53;3.80;;;;;;;;;;6213928;28;20054;-80
2022/08/15 15:06:04;;;;;;;4.53;3.78;;;;;;;;;;6212515;28;20049;-81
2022/08/15 15:09:28;;;;;;;4.32;3.90;;;;;;;;;;6228155;28;20052;-80
2022/08/15 15:12:33;;;;;;;6.63;4.40;;;;;;;;;;6213862;28;20065;-80
2022/08/15 15:15:46;;;;;;;5.03;4.07;;;;;;;;;;6210987;28;20038;-80
2022/08/15 15:19:13;;;;;;;4.20;3.80;;;;;;;;;;6214883;28;20109;-81
2022/08/15 15:22:20;;;;;;;4.38;3.97;;;;;;;;;;6214826;28;20071;-80
2022/08/15 15:25:21;;;;;;;4.03;3.65;;;;;;;;;;6212893;28;20053;-81
2022/08/15 15:28:24;;;;;;;3.80;3.40;;;;;;;;;;6228406;28;20046;-81
2022/08/15 15:31:46;;;;;;;4.55;3.30;;;;;;;;;;6213353;28;20050;-80
2022/08/15 15:34:56;;;;;;;4.15;3.40;;;;;;;;;;6223557;28;20108;-80
2022/08/15 15:37:58;;;;;;;5.38;3.47;;;;;;;;;;6229221;28;20555;-80
2022/08/15 15:41:19;;;;;;;4.80;3.53;;;;;;;;;;6217705;28;20121;-79
2022/08/15 15:44:26;;;;;;;3.60;3.28;;;;;;;;;;6218804;28;20060;-80
2022/08/15 15:47:28;;;;;;;4.70;3.63;;;;;;;;;;6219551;28;20085;-79
2022/08/15 15:50:41;;;;;;;4.47;3.17;;;;;;;;;;6217447;28;20072;-80
2022/08/15 15:53:50;;;;;;;3.70;3.05;;;;;;;;;;6218827;28;20046;-80
2022/08/15 15:56:52;;;;;;;4.00;2.92;;;;;;;;;;6217727;28;20050;-79
2022/08/15 15:59:55;;;;;;;4.50;3.80;;;;;;;;;;6232453;28;20046;-80
2022/08/15 16:03:18;;;;;;;9.02;5.85;;;;;;;;;;6219103;28;20042;-80
2022/08/15 16:06:22;;;;;;;4.20;2.70;;;;;;;;;;6216023;28;20038;-79
2022/08/15 16:09:44;;;;;;;3.67;2.78;;;;;;;;;;6216204;28;20034;-79
2022/08/15 16:12:55;;;;;;;3.88;2.60;;;;;;;;;;6230243;28;20052;-80
2022/08/15 16:16:12;;;;;;;4.38;3.00;;;;;;;;;;6216708;28;20042;-79
2022/08/15 16:19:22;;;;;;;3.17;2.75;;;;;;;;;;6213912;28;20416;-78
2022/08/15 16:22:35;;;;;;;2.83;2.63;;;;;;;;;;6213878;28;20058;-78
2022/08/15 16:25:49;;;;;;;4.18;3.00;;;;;;;;;;6203468;28;20516;-79
2022/08/15 16:29:00;;;;;;;3.08;2.80;;;;;;;;;;6208219;28;20088;-78
2022/08/15 16:32:13;;;;;;;4.18;3.00;;;;;;;;;;6223702;28;20429;-79
2022/08/15 16:35:32;;;;;;;3.83;2.75;;;;;;;;;;6209961;28;20061;-81
2022/08/15 16:38:43;;;;;;;3.10;2.80;;;;;;;;;;6212643;28;20131;-80
2022/08/15 16:42:10;;;;;;;3.22;2.60;;;;;;;;;;6208338;28;20050;-79
2022/08/15 16:45:15;;;;;;;3.22;2.90;;;;;;;;;;6210302;28;20046;-78
2022/08/15 16:48:37;;;;;;;2.90;2.70;;;;;;;;;;6213073;28;20030;-79
2022/08/15 16:52:02;;;;;;;4.07;3.17;;;;;;;;;;6213044;28;20060;-79
2022/08/15 16:55:48;;;;;;;3.67;2.85;;;;;;;;;;6213136;28;20125;-84
2022/08/15 16:59:12;;;;;;;3.60;3.30;;;;;;;;;;6194844;28;20037;-80
2022/08/15 17:02:35;;;;;;;;;;;;;;;;;;6229886;28;20119;-78
2022/08/15 17:06:02;;;;;;;3.97;3.30;;;;;;;;;;6210529;28;19925;-79
2022/08/15 17:09:26;;;;;;;3.42;3.13;;;;;;;;;;6210866;28;20504;-80
2022/08/15 17:13:01;;;;;;;4.07;3.22;;;;;;;;;;6206850;28;20138;-80
2022/08/15 17:16:16;;;;;;;4.38;3.15;;;;;;;;;;6210033;28;20501;-79
2022/08/15 17:19:33;;;;;;;;;;;;;;;;;;6225522;28;20048;-79
2022/08/15 17:22:49;;;;;;;4.45;3.00;;;;;;;;;;6226970;28;20064;-76
2022/08/15 17:26:01;;;;;;;3.50;3.20;;;;;;;;;;6223207;28;20045;-78
2022/08/15 17:29:33;;;;;;;3.20;2.47;;;;;;;;;;6211087;28;20046;-78
2022/08/15 17:32:57;;;;;;;4.80;3.33;;;;;;;;;;6213124;28;20136;-79
2022/08/15 17:36:06;;;;;;;3.50;2.90;;;;;;;;;;6212507;28;20112;-81
2022/08/15 17:39:19;;;;;;;5.35;2.83;;;;;;;;;;6213343;28;20046;-79
2022/08/15 17:42:31;;;;;;;3.05;2.80;;;;;;;;;;6214565;28;20042;-78
2022/08/15 17:45:34;;;;;;;3.10;2.80;;;;;;;;;;6210074;28;20057;-79
2022/08/15 17:48:53;;;;;;;2.90;2.53;;;;;;;;;;6212444;28;20049;-78
2022/08/15 17:52:01;;;;;;;3.17;2.70;;;;;;;;;;6217853;28;20041;-77
2022/08/15 17:55:13;;;;;;;3.35;2.80;;;;;;;;;;6214350;28;20062;-77
2022/08/15 17:58:34;;;;;;;2.92;2.70;;;;;;;;;;6211042;28;20424;-76
2022/08/15 18:01:36;;;;;;;3.67;2.50;;;;;;;;;;6224201;28;20117;-78
2022/08/15 18:04:38;;;;;;;3.63;2.30;;;;;;;;;;6229472;28;20053;-79
2022/08/15 18:07:41;;;;;;;3.00;2.50;;;;;;;;;;6207251;28;20041;-79
2022/08/15 18:10:55;;;;;;;2.55;2.35;;;;;;;;;;6212983;28;20046;-78
2022/08/15 18:13:57;;;;;;;2.58;2.38;;;;;;;;;;6209930;28;20688;-78
2022/08/15 18:17:30;;;;;;;2.60;2.40;;;;;;;;;;6210759;28;20038;-78
2022/08/15 18:20:44;;;;;;;2.60;2.10;;;;;;;;;;6206072;28;20053;-78
2022/08/15 18:23:47;;;;;;;2.78;2.22;;;;;;;;;;6208468;28;20050;-78
2022/08/15 18:27:00;;;;;;;2.97;2.35;;;;;;;;;;6204079;28;20042;-78
2022/08/15 18:30:13;;;;;;;3.00;2.30;;;;;;;;;;6225548;28;20073;-78
2022/08/15 18:33:35;;;;;;;4.32;2.58;;;;;;;;;;6212491;28;20038;-77
2022/08/15 18:36:58;;;;;;;2.63;2.35;;;;;;;;;;6206937;28;20081;-77
2022/08/15 18:43:21;;;;;;;3.47;2.33;;;;;;;;;;6208446;28;20049;-78
2022/08/15 18:46:35;;;;;;;2.67;2.30;;;;;;;;;;6209116;28;20052;-78
2022/08/15 18:49:37;;;;;;;2.60;2.40;;;;;;;;;;6222771;28;20046;-78
2022/08/15 18:52:41;;;;;;;3.15;2.42;;;;;;;;;;6205857;28;20038;-78
2022/08/15 18:55:46;;;;;;;3.20;2.70;;;;;;;;;;6207747;28;20049;-78
2022/08/15 18:58:50;;;;;;;2.90;2.60;;;;;;;;;;6221591;28;20547;-77
2022/08/15 19:01:57;;;;;;;3.72;2.67;;;;;;;;;;6208746;28;20095;-78
2022/08/15 19:05:21;;;;;;;5.13;3.00;;;;;;;;;;6209964;28;20050;-77
2022/08/15 19:08:28;;;;;;;3.17;2.47;;;;;;;;;;6211515;28;20038;-78
2022/08/15 19:11:43;;;;;;;3.38;2.50;;;;;;;;;;6208111;28;20136;-79
2022/08/15 19:14:51;;;;;;;5.45;2.88;;;;;;;;;;6207151;28;20048;-80
2022/08/15 19:18:05;;;;;;;5.57;3.15;;;;;;;;;;6211148;28;20332;-79
2022/08/15 19:21:11;;;;;;;6.68;3.20;;;;;;;;;;6227101;28;20161;-80
2022/08/15 19:24:17;;;;;;;10.23;3.95;;;;;;;;;;6219459;28;20068;-80
2022/08/15 19:27:42;;;;;;;7.28;3.10;;;;;;;;;;6210926;28;20053;-83
2022/08/15 19:30:51;;;;;;;8.88;3.55;;;;;;;;;;6209508;28;20119;-80